createdAt,value
2023-01-18T00:00:50.957Z,172.30
2023-01-18T00:03:03.719Z,149.30
2023-01-18T00:05:15.362Z,137.40
2023-01-18T00:07:27.605Z,136.40
2023-01-18T00:09:39.296Z,133.40
2023-01-18T00:11:51.594Z,126.80
2023-01-18T00:14:03.903Z,119.30
2023-01-18T00:16:21.411Z,124.20
2023-01-18T00:18:36.176Z,222.60
2023-01-18T00:20:47.874Z,246.90
2023-01-18T00:23:01.908Z,227.40
2023-01-18T00:25:13.597Z,225.40
2023-01-18T00:27:25.386Z,145.10
2023-01-18T00:29:37.791Z,129.00
2023-01-18T00:31:49.525Z,114.60
2023-01-18T00:34:01.805Z,100.60
2023-01-18T00:36:16.595Z,96.10
2023-01-18T00:38:29.359Z,103.10
2023-01-18T00:40:40.847Z,131.90
2023-01-18T00:43:11.866Z,102.30
2023-01-18T00:45:24.103Z,114.60
2023-01-18T00:47:36.277Z,108.10
2023-01-18T00:49:47.863Z,96.30
2023-01-18T00:51:59.549Z,90.50
2023-01-18T00:54:11.561Z,96.50
2023-01-18T00:56:23.850Z,90.40
2023-01-18T00:58:37.674Z,99.00
2023-01-18T01:00:52.982Z,104.50
2023-01-18T01:03:05.261Z,104.80
2023-01-18T01:05:45.104Z,107.90
2023-01-18T01:07:57.212Z,117.80
2023-01-18T01:10:10.326Z,136.70
2023-01-18T01:12:40.857Z,135.20
2023-01-18T01:15:11.727Z,145.10
2023-01-18T01:17:42.942Z,134.70
2023-01-18T01:20:13.366Z,133.80
2023-01-18T01:22:44.406Z,112.70
2023-01-18T01:25:15.241Z,147.00
2023-01-18T01:27:27.449Z,145.70
2023-01-18T01:29:39.233Z,133.90
2023-01-18T01:31:51.020Z,109.50
2023-01-18T01:34:02.609Z,119.60
2023-01-18T01:36:25.964Z,125.40
2023-01-18T01:38:37.858Z,133.60
2023-01-18T01:40:58.145Z,124.30
2023-01-18T01:43:13.542Z,122.40
2023-01-18T01:45:28.589Z,112.70
2023-01-18T01:47:44.577Z,123.30
2023-01-18T01:50:02.222Z,107.40
2023-01-18T01:52:19.933Z,122.10
2023-01-18T01:54:37.481Z,101.40
2023-01-18T01:56:53.852Z,90.00
2023-01-18T01:59:06.462Z,86.10
2023-01-18T02:01:18.430Z,94.80
2023-01-18T02:03:31.476Z,88.50
2023-01-18T02:05:46.877Z,93.70
2023-01-18T02:08:01.221Z,90.70
2023-01-18T02:10:12.887Z,92.90
2023-01-18T02:12:25.939Z,120.40
2023-01-18T02:14:38.314Z,116.10
2023-01-18T02:17:15.403Z,104.00
2023-01-18T02:20:07.031Z,97.00
2023-01-18T02:22:28.125Z,98.50
2023-01-18T02:24:52.306Z,92.50
2023-01-18T02:27:15.155Z,95.20
2023-01-18T02:29:48.552Z,95.00
2023-01-18T02:32:06.635Z,94.50
2023-01-18T02:34:49.103Z,92.20
2023-01-18T02:37:21.065Z,90.20
2023-01-18T02:39:50.699Z,83.90
2023-01-18T02:42:44.034Z,84.40
2023-01-18T02:45:15.796Z,82.00
2023-01-18T02:47:29.119Z,96.20
2023-01-18T02:49:40.805Z,94.90
2023-01-18T02:52:05.404Z,84.00
2023-01-18T02:54:24.670Z,80.80
2023-01-18T02:56:46.177Z,84.00
2023-01-18T02:59:16.301Z,98.70
2023-01-18T03:01:34.821Z,92.40
2023-01-18T03:06:02.731Z,88.90
2023-01-18T03:08:21.827Z,85.70
2023-01-18T03:10:44.126Z,87.90
2023-01-18T03:13:00.793Z,77.50
2023-01-18T03:15:45.110Z,70.90
2023-01-18T03:18:02.283Z,78.90
2023-01-18T03:20:18.961Z,109.60
2023-01-18T03:22:55.849Z,106.00
2023-01-18T03:25:10.245Z,85.80
2023-01-18T03:27:40.965Z,117.80
2023-01-18T03:30:11.628Z,74.70
2023-01-18T03:32:42.635Z,75.20
2023-01-18T03:34:57.104Z,83.10
2023-01-18T03:37:14.920Z,72.00
2023-01-18T03:39:51.809Z,84.40
2023-01-18T03:42:09.332Z,156.40
2023-01-18T03:44:36.371Z,202.00
2023-01-18T03:46:48.569Z,127.00
2023-01-18T03:49:00.980Z,122.60
2023-01-18T03:51:23.621Z,88.00
2023-01-18T03:53:42.886Z,108.40
2023-01-18T03:56:03.689Z,94.30
2023-01-18T03:58:21.961Z,83.20
2023-01-18T04:00:34.027Z,108.00
2023-01-18T04:02:48.211Z,116.10
2023-01-18T04:05:04.567Z,140.00
2023-01-18T04:07:16.970Z,150.50
2023-01-18T04:09:28.480Z,136.80
2023-01-18T04:11:40.561Z,131.20
2023-01-18T04:13:54.393Z,119.60
2023-01-18T04:16:06.936Z,133.40
2023-01-18T04:18:18.789Z,168.40
2023-01-18T04:20:30.993Z,185.10
2023-01-18T04:22:43.094Z,167.30
2023-01-18T04:24:54.671Z,156.20
2023-01-18T04:27:06.769Z,136.20
2023-01-18T04:29:18.555Z,134.20
2023-01-18T04:31:59.137Z,138.60
2023-01-18T04:34:13.983Z,126.00
2023-01-18T04:36:28.649Z,111.00
2023-01-18T04:38:40.531Z,104.60
2023-01-18T04:40:52.424Z,105.00
2023-01-18T04:43:04.727Z,103.00
2023-01-18T04:45:18.366Z,112.80
2023-01-18T04:47:30.477Z,92.30
2023-01-18T04:49:42.143Z,91.20
2023-01-18T04:51:54.347Z,96.60
2023-01-18T04:54:06.336Z,85.90
2023-01-18T04:56:18.337Z,77.10
2023-01-18T04:58:30.430Z,103.40
2023-01-18T05:00:42.465Z,130.60
2023-01-18T05:02:54.222Z,118.10
2023-01-18T05:05:06.619Z,135.80
2023-01-18T05:07:18.307Z,143.40
2023-01-18T05:09:30.508Z,153.60
2023-01-18T05:11:43.385Z,154.50
2023-01-18T05:13:56.149Z,151.90
2023-01-18T05:16:14.534Z,144.60
2023-01-18T05:20:38.571Z,133.90
2023-01-18T05:22:50.357Z,119.80
2023-01-18T05:25:02.064Z,112.80
2023-01-18T05:27:15.251Z,106.20
2023-01-18T05:29:27.168Z,103.90
2023-01-18T05:31:39.389Z,130.90
2023-01-18T05:33:51.561Z,193.20
2023-01-18T05:36:04.272Z,122.20
2023-01-18T05:38:15.988Z,122.60
2023-01-18T05:40:28.269Z,127.30
2023-01-18T05:42:39.949Z,130.20
2023-01-18T05:44:51.746Z,169.30
2023-01-18T05:47:03.635Z,140.70
2023-01-18T05:49:15.624Z,131.20
2023-01-18T05:51:27.416Z,126.50
2023-01-18T05:53:40.025Z,108.10
2023-01-18T05:56:00.137Z,98.50
2023-01-18T05:58:12.066Z,90.60
2023-01-18T06:00:23.898Z,82.50
2023-01-18T06:02:35.741Z,77.50
2023-01-18T06:04:48.103Z,70.00
2023-01-18T06:06:59.979Z,78.80
2023-01-18T06:09:11.669Z,77.90
2023-01-18T06:11:23.591Z,71.80
2023-01-18T06:13:35.773Z,74.30
2023-01-18T06:15:49.676Z,73.50
2023-01-18T06:18:02.411Z,70.40
2023-01-18T06:20:14.922Z,78.20
2023-01-18T06:22:26.606Z,73.10
2023-01-18T06:24:39.585Z,70.60
2023-01-18T06:26:51.740Z,80.20
2023-01-18T06:29:03.718Z,84.20
2023-01-18T06:31:15.627Z,78.40
2023-01-18T06:33:27.507Z,80.90
2023-01-18T06:35:39.906Z,85.50
2023-01-18T06:37:52.620Z,127.50
2023-01-18T06:40:05.634Z,118.60
2023-01-18T06:42:17.735Z,111.50
2023-01-18T06:44:29.319Z,98.60
2023-01-18T06:46:43.874Z,87.60
2023-01-18T06:48:55.978Z,85.90
2023-01-18T06:51:08.171Z,80.20
2023-01-18T06:53:20.900Z,78.60
2023-01-18T06:55:34.766Z,74.50
2023-01-18T06:57:47.938Z,80.80
2023-01-18T07:00:02.091Z,71.70
2023-01-18T07:02:16.739Z,78.60
2023-01-18T07:04:28.737Z,80.10
2023-01-18T07:06:40.328Z,81.90
2023-01-18T07:08:52.219Z,89.70
2023-01-18T07:11:07.106Z,95.50
2023-01-18T07:13:20.509Z,95.00
2023-01-18T07:15:32.407Z,103.30
2023-01-18T07:17:45.314Z,123.30
2023-01-18T07:19:57.412Z,113.70
2023-01-18T07:22:09.460Z,112.90
2023-01-18T07:24:22.431Z,131.30
2023-01-18T07:26:34.113Z,163.70
2023-01-18T07:28:47.346Z,150.40
2023-01-18T07:31:02.709Z,180.60
2023-01-18T07:33:14.396Z,163.50
2023-01-18T07:35:27.727Z,177.10
2023-01-18T07:37:40.231Z,192.60
2023-01-18T07:39:52.543Z,265.80
2023-01-18T07:42:05.145Z,257.30
2023-01-18T07:44:18.925Z,252.80
2023-01-18T07:46:31.657Z,224.90
2023-01-18T07:48:45.233Z,221.90
2023-01-18T07:51:00.114Z,195.30
2023-01-18T07:53:12.021Z,195.90
2023-01-18T07:55:24.795Z,271.30
2023-01-18T07:57:36.301Z,291.80
2023-01-18T07:59:48.163Z,412.40
2023-01-18T08:01:59.973Z,370.00
2023-01-18T08:04:11.846Z,267.60
2023-01-18T08:06:26.094Z,265.00
2023-01-18T08:08:38.296Z,263.70
2023-01-18T08:10:55.000Z,357.00
2023-01-18T08:13:11.284Z,264.00
2023-01-18T08:15:23.188Z,175.20
2023-01-18T08:17:35.719Z,178.30
2023-01-18T08:19:47.248Z,159.20
2023-01-18T08:21:59.281Z,150.90
2023-01-18T08:24:11.472Z,168.90
2023-01-18T08:26:23.369Z,180.30
2023-01-18T08:28:35.566Z,181.60
2023-01-18T08:30:48.940Z,353.70
2023-01-18T08:33:02.745Z,307.10
2023-01-18T08:35:14.631Z,258.40
2023-01-18T08:37:26.632Z,210.90
2023-01-18T08:39:38.815Z,181.20
2023-01-18T08:41:50.501Z,223.60
2023-01-18T08:44:02.503Z,200.70
2023-01-18T08:46:15.764Z,179.70
2023-01-18T08:48:28.028Z,167.70
2023-01-18T08:50:39.911Z,182.80
2023-01-18T08:52:52.697Z,188.30
2023-01-18T08:55:05.418Z,209.90
2023-01-18T08:57:17.343Z,213.00
2023-01-18T08:59:29.051Z,254.90
2023-01-18T09:01:40.695Z,236.20
2023-01-18T09:03:57.694Z,193.20
2023-01-18T09:06:12.481Z,185.40
2023-01-18T09:08:24.883Z,162.90
2023-01-18T09:10:37.697Z,152.00
2023-01-18T09:12:51.104Z,164.20
2023-01-18T09:15:05.067Z,154.80
2023-01-18T09:17:19.315Z,144.20
2023-01-18T09:19:31.205Z,165.20
2023-01-18T09:21:45.248Z,185.30
2023-01-18T09:23:59.497Z,171.80
2023-01-18T09:26:17.089Z,180.70
2023-01-18T09:28:29.321Z,190.70
2023-01-18T09:30:41.111Z,177.20
2023-01-18T09:32:52.799Z,175.50
2023-01-18T09:35:06.285Z,177.00
2023-01-18T09:37:19.292Z,170.10
2023-01-18T09:39:40.207Z,143.00
2023-01-18T09:42:01.584Z,149.50
2023-01-18T09:44:29.636Z,155.00
2023-01-18T09:46:42.793Z,120.90
2023-01-18T09:48:57.463Z,128.20
2023-01-18T09:51:20.822Z,136.00
2023-01-18T09:53:55.096Z,148.00
2023-01-18T09:56:20.871Z,174.30
2023-01-18T09:58:57.893Z,157.80
2023-01-18T10:01:18.172Z,153.90
2023-01-18T10:03:59.161Z,126.40
2023-01-18T10:06:21.700Z,101.10
2023-01-18T10:08:36.253Z,111.30
2023-01-18T10:11:09.884Z,94.80
2023-01-18T10:13:34.382Z,97.50
2023-01-18T10:15:46.645Z,105.30
2023-01-18T10:18:00.771Z,151.40
2023-01-18T10:20:34.286Z,210.30
2023-01-18T10:22:52.889Z,124.70
2023-01-18T10:25:32.893Z,127.40
2023-01-18T10:28:08.242Z,134.00
2023-01-18T10:30:55.962Z,127.30
2023-01-18T10:33:18.710Z,95.30
2023-01-18T10:35:39.924Z,95.60
2023-01-18T10:37:55.298Z,93.60
2023-01-18T10:40:10.350Z,80.60
2023-01-18T10:42:48.061Z,85.10
2023-01-18T10:44:59.950Z,74.00
2023-01-18T10:47:12.155Z,101.20
2023-01-18T10:49:42.888Z,100.90
2023-01-18T10:51:54.983Z,108.90
2023-01-18T10:54:19.368Z,122.70
2023-01-18T10:56:31.282Z,142.50
2023-01-18T10:58:52.183Z,109.70
2023-01-18T11:01:04.741Z,97.80
2023-01-18T11:03:17.074Z,99.80
2023-01-18T11:05:31.936Z,97.10
2023-01-18T11:07:44.237Z,86.70
2023-01-18T11:10:01.711Z,95.80
2023-01-18T11:12:41.548Z,73.80
2023-01-18T11:14:53.501Z,90.70
2023-01-18T11:17:12.691Z,88.10
2023-01-18T11:19:26.548Z,80.60
2023-01-18T11:21:41.309Z,100.00
2023-01-18T11:23:55.345Z,101.40
2023-01-18T11:26:15.207Z,86.70
2023-01-18T11:28:39.657Z,89.00
2023-01-18T11:31:08.771Z,123.20
2023-01-18T11:33:23.795Z,125.10
2023-01-18T11:35:37.332Z,196.50
2023-01-18T11:37:48.999Z,207.10
2023-01-18T11:40:21.630Z,131.00
2023-01-18T11:42:37.865Z,135.00
2023-01-18T11:45:07.215Z,191.00
2023-01-18T11:47:32.027Z,216.90
2023-01-18T11:49:53.009Z,167.70
2023-01-18T11:52:36.260Z,219.60
2023-01-18T11:55:02.063Z,141.80
2023-01-18T11:57:14.432Z,140.30
2023-01-18T11:59:35.661Z,120.50
2023-01-18T12:02:05.854Z,118.10
2023-01-18T12:04:55.689Z,158.90
2023-01-18T12:07:33.080Z,162.00
2023-01-18T12:10:07.517Z,134.50
2023-01-18T12:12:53.613Z,154.80
2023-01-18T12:15:31.805Z,153.90
2023-01-18T12:18:22.298Z,214.40
2023-01-18T12:20:53.874Z,191.30
2023-01-18T12:23:27.270Z,179.10
2023-01-18T12:25:57.699Z,165.20
2023-01-18T12:28:20.971Z,158.90
2023-01-18T12:30:58.334Z,212.90
2023-01-18T12:33:20.590Z,275.40
2023-01-18T12:36:07.063Z,225.80
2023-01-18T12:38:23.357Z,202.30
2023-01-18T12:40:41.300Z,289.80
2023-01-18T12:43:02.198Z,346.50
2023-01-18T12:45:23.101Z,234.40
2023-01-18T12:47:49.432Z,167.50
2023-01-18T12:50:07.294Z,163.10
2023-01-18T12:52:22.538Z,196.50
2023-01-18T12:54:42.318Z,154.10
2023-01-18T12:56:57.245Z,176.70
2023-01-18T12:59:19.574Z,184.00
2023-01-18T13:01:39.266Z,179.50
2023-01-18T13:03:57.836Z,151.30
2023-01-18T13:06:10.550Z,140.10
2023-01-18T13:08:31.660Z,153.90
2023-01-18T13:10:44.879Z,163.20
2023-01-18T13:12:58.120Z,140.50
2023-01-18T13:15:35.598Z,120.60
2023-01-18T13:17:56.866Z,130.50
2023-01-18T13:20:09.730Z,148.40
2023-01-18T13:22:31.857Z,149.80
2023-01-18T13:25:11.932Z,165.20
2023-01-18T13:27:24.419Z,153.10
2023-01-18T13:29:37.127Z,149.70
2023-01-18T13:31:49.433Z,134.00
2023-01-18T13:34:01.835Z,141.70
2023-01-18T13:36:17.553Z,143.00
2023-01-18T13:38:41.096Z,149.40
2023-01-18T13:40:55.813Z,160.90
2023-01-18T13:43:29.955Z,166.80
2023-01-18T13:46:02.442Z,152.50
2023-01-18T13:49:03.061Z,155.30
2023-01-18T13:51:36.715Z,183.70
2023-01-18T13:53:50.301Z,162.00
2023-01-18T13:56:08.811Z,143.40
2023-01-18T13:58:29.873Z,169.40
2023-01-18T14:00:48.402Z,165.60
2023-01-18T14:03:16.895Z,184.90
2023-01-18T14:05:46.416Z,150.80
2023-01-18T14:08:01.893Z,178.50
2023-01-18T14:10:49.205Z,145.80
2023-01-18T14:13:03.643Z,142.50
2023-01-18T14:15:46.924Z,143.50
2023-01-18T14:17:59.472Z,194.80
2023-01-18T14:20:29.490Z,138.20
2023-01-18T14:23:17.682Z,131.80
2023-01-18T14:25:58.109Z,206.80
2023-01-18T14:29:07.133Z,167.00
2023-01-18T14:31:26.850Z,149.30
2023-01-18T14:33:42.612Z,200.50
2023-01-18T14:36:01.171Z,178.10
2023-01-18T14:38:18.872Z,268.20
2023-01-18T14:40:31.713Z,249.50
2023-01-18T14:43:01.122Z,236.00
2023-01-18T14:45:40.968Z,182.00
2023-01-18T14:47:55.191Z,191.30
2023-01-18T14:50:16.385Z,306.00
2023-01-18T14:52:32.386Z,455.50
2023-01-18T14:54:56.026Z,408.30
2023-01-18T14:57:14.545Z,375.20
2023-01-18T14:59:27.893Z,263.70
2023-01-18T15:01:40.637Z,181.80
2023-01-18T15:03:55.285Z,165.50
2023-01-18T15:06:16.063Z,143.00
2023-01-18T15:08:30.713Z,167.00
2023-01-18T15:10:44.278Z,153.60
2023-01-18T15:12:59.044Z,142.10
2023-01-18T15:15:22.404Z,147.40
2023-01-18T15:17:37.288Z,129.50
2023-01-18T15:19:57.267Z,214.70
2023-01-18T15:22:12.642Z,339.70
2023-01-18T15:24:29.448Z,268.70
2023-01-18T15:26:53.146Z,190.00
2023-01-18T15:29:09.384Z,166.60
2023-01-18T15:31:21.207Z,137.80
2023-01-18T15:33:35.343Z,130.70
2023-01-18T15:35:50.386Z,148.60
2023-01-18T15:38:05.174Z,150.30
2023-01-18T15:40:17.239Z,155.10
2023-01-18T15:42:36.975Z,162.30
2023-01-18T15:44:52.185Z,158.50
2023-01-18T15:47:15.760Z,230.20
2023-01-18T15:49:27.957Z,289.30
2023-01-18T15:51:56.641Z,332.30
2023-01-18T15:54:15.290Z,226.60
2023-01-18T15:56:32.862Z,370.80
2023-01-18T15:58:50.088Z,456.00
2023-01-18T16:01:13.923Z,352.00
2023-01-18T16:03:29.969Z,398.20
2023-01-18T16:05:41.888Z,395.80
2023-01-18T16:08:21.670Z,320.50
2023-01-18T16:10:34.038Z,287.10
2023-01-18T16:12:46.140Z,577.60
2023-01-18T16:14:58.027Z,397.80
2023-01-18T16:17:24.520Z,296.70
2023-01-18T16:19:41.986Z,232.10
2023-01-18T16:22:06.176Z,337.50
2023-01-18T16:24:30.856Z,226.30
2023-01-18T16:26:44.178Z,286.50
2023-01-18T16:29:06.834Z,255.80
2023-01-18T16:31:23.012Z,327.80
2023-01-18T16:33:35.325Z,340.50
2023-01-18T16:35:48.648Z,303.90
2023-01-18T16:38:04.095Z,280.50
2023-01-18T16:40:19.044Z,265.90
2023-01-18T16:42:38.588Z,237.60
2023-01-18T16:44:52.747Z,216.60
2023-01-18T16:47:05.311Z,196.80
2023-01-18T16:49:18.400Z,225.30
2023-01-18T16:51:32.000Z,221.90
2023-01-18T16:53:45.201Z,230.40
2023-01-18T16:55:58.149Z,207.40
2023-01-18T16:58:13.737Z,316.90
2023-01-18T17:00:34.091Z,254.60
2023-01-18T17:02:47.192Z,198.60
2023-01-18T17:04:59.823Z,182.80
2023-01-18T17:07:13.422Z,185.70
2023-01-18T17:09:32.370Z,193.80
2023-01-18T17:11:45.907Z,190.60
2023-01-18T17:14:01.324Z,182.80
2023-01-18T17:16:20.110Z,202.50
2023-01-18T17:18:32.053Z,198.80
2023-01-18T17:20:44.878Z,254.70
2023-01-18T17:22:58.307Z,287.40
2023-01-18T17:25:12.543Z,270.80
2023-01-18T17:27:25.490Z,268.60
2023-01-18T17:29:38.516Z,255.20
2023-01-18T17:31:53.222Z,266.20
2023-01-18T17:34:07.500Z,296.20
2023-01-18T17:36:20.975Z,280.00
2023-01-18T17:38:36.535Z,332.10
2023-01-18T17:40:49.306Z,361.60
2023-01-18T17:43:01.647Z,353.70
2023-01-18T17:45:16.671Z,407.60
2023-01-18T17:47:30.152Z,628.90
2023-01-18T17:49:42.034Z,634.40
2023-01-18T17:51:53.988Z,556.50
2023-01-18T17:54:13.152Z,453.60
2023-01-18T17:56:33.235Z,338.10
2023-01-18T17:58:47.839Z,323.90
2023-01-18T18:01:11.579Z,419.70
2023-01-18T18:03:23.764Z,553.70
2023-01-18T18:05:35.647Z,515.20
2023-01-18T18:07:49.795Z,497.90
2023-01-18T18:10:02.360Z,377.60
2023-01-18T18:12:14.190Z,435.30
2023-01-18T18:14:26.097Z,274.00
2023-01-18T18:16:49.389Z,299.40
2023-01-18T18:19:03.111Z,331.40
2023-01-18T18:21:47.829Z,311.80
2023-01-18T18:24:04.034Z,249.90
2023-01-18T18:26:16.854Z,238.20
2023-01-18T18:28:29.969Z,246.20
2023-01-18T18:30:41.658Z,235.40
2023-01-18T18:32:55.501Z,244.30
2023-01-18T18:35:23.219Z,265.50
2023-01-18T18:37:36.895Z,291.70
2023-01-18T18:39:49.499Z,353.80
2023-01-18T18:42:01.759Z,411.60
2023-01-18T18:44:14.622Z,420.40
2023-01-18T18:46:26.857Z,437.90
2023-01-18T18:48:39.120Z,410.20
2023-01-18T18:50:52.317Z,430.10
2023-01-18T18:53:03.968Z,409.00
2023-01-18T18:55:16.331Z,378.60
2023-01-18T18:57:29.561Z,363.00
2023-01-18T18:59:41.679Z,377.00
2023-01-18T19:01:55.800Z,368.60
2023-01-18T19:04:08.201Z,449.00
2023-01-18T19:06:23.343Z,413.20
2023-01-18T19:08:35.264Z,392.10
2023-01-18T19:10:51.316Z,362.70
2023-01-18T19:13:05.001Z,365.00
2023-01-18T19:15:17.306Z,310.10
2023-01-18T19:17:31.038Z,335.10
2023-01-18T19:19:47.319Z,353.70
2023-01-18T19:21:59.520Z,330.70
2023-01-18T19:24:11.310Z,313.30
2023-01-18T19:26:22.999Z,299.50
2023-01-18T19:28:36.431Z,285.40
2023-01-18T19:30:50.987Z,286.50
2023-01-18T19:33:03.649Z,336.30
2023-01-18T19:35:23.471Z,342.50
2023-01-18T19:37:38.843Z,357.60
2023-01-18T19:39:50.636Z,368.00
2023-01-18T19:42:02.942Z,410.30
2023-01-18T19:44:14.622Z,359.00
2023-01-18T19:46:26.603Z,388.60
2023-01-18T19:48:40.618Z,372.50
2023-01-18T19:50:54.089Z,379.20
2023-01-18T19:53:06.801Z,442.30
2023-01-18T19:56:06.450Z,624.50
2023-01-18T19:58:47.908Z,592.20
2023-01-18T20:01:00.296Z,761.20
2023-01-18T20:03:13.696Z,1025.90
2023-01-18T20:05:28.506Z,1203.90
2023-01-18T20:07:41.392Z,863.00
2023-01-18T20:09:53.236Z,624.90
2023-01-18T20:12:05.604Z,580.40
2023-01-18T20:14:18.565Z,576.90
2023-01-18T20:16:31.124Z,557.40
2023-01-18T20:18:43.236Z,502.10
2023-01-18T20:20:56.962Z,393.10
2023-01-18T20:23:11.717Z,354.60
2023-01-18T20:25:25.760Z,352.20
2023-01-18T20:27:37.958Z,333.40
2023-01-18T20:29:51.191Z,342.10
2023-01-18T20:32:15.152Z,326.40
2023-01-18T20:34:27.971Z,319.50
2023-01-18T20:36:40.888Z,337.10
2023-01-18T20:38:52.677Z,316.20
2023-01-18T20:41:06.265Z,300.70
2023-01-18T20:43:18.651Z,291.40
2023-01-18T20:45:31.399Z,278.20
2023-01-18T20:47:44.956Z,241.80
2023-01-18T20:49:56.849Z,230.80
2023-01-18T20:52:11.404Z,249.50
2023-01-18T20:54:22.934Z,242.20
2023-01-18T20:56:34.676Z,234.30
2023-01-18T20:58:47.217Z,227.60
2023-01-18T21:01:07.644Z,217.80
2023-01-18T21:03:19.776Z,213.60
2023-01-18T21:05:31.360Z,198.80
2023-01-18T21:07:43.357Z,197.60
2023-01-18T21:09:56.274Z,203.40
2023-01-18T21:12:08.264Z,191.70
2023-01-18T21:14:23.418Z,196.80
2023-01-18T21:16:48.281Z,187.40
2023-01-18T21:19:00.838Z,189.00
2023-01-18T21:21:13.291Z,179.90
2023-01-18T21:23:26.359Z,181.20
2023-01-18T21:25:38.361Z,195.00
2023-01-18T21:27:53.620Z,212.80
2023-01-18T21:30:06.965Z,193.00
2023-01-18T21:32:53.760Z,202.30
2023-01-18T21:35:06.171Z,194.30
2023-01-18T21:37:17.960Z,225.10
2023-01-18T21:39:40.459Z,225.90
2023-01-18T21:43:01.936Z,198.90
2023-01-18T21:45:35.294Z,231.20
2023-01-18T21:48:15.099Z,233.30
2023-01-18T21:50:47.400Z,259.00
2023-01-18T21:53:19.688Z,245.50
2023-01-18T21:55:31.833Z,251.30
2023-01-18T21:57:44.006Z,256.50
2023-01-18T21:59:55.593Z,245.60
2023-01-18T22:02:09.966Z,257.20
2023-01-18T22:04:40.618Z,267.80
2023-01-18T22:06:54.374Z,265.00
2023-01-18T22:09:20.669Z,250.50
2023-01-18T22:11:33.253Z,257.40
2023-01-18T22:13:45.446Z,267.20
2023-01-18T22:16:02.706Z,249.10
2023-01-18T22:18:14.456Z,269.60
2023-01-18T22:20:26.552Z,266.50
2023-01-18T22:22:38.418Z,285.50
2023-01-18T22:24:50.136Z,294.60
2023-01-18T22:27:01.718Z,299.20
2023-01-18T22:29:13.852Z,296.10
2023-01-18T22:31:26.122Z,313.40
2023-01-18T22:33:37.904Z,339.10
2023-01-18T22:35:49.538Z,293.00
2023-01-18T22:38:01.806Z,289.70
2023-01-18T22:40:14.207Z,275.80
2023-01-18T22:42:26.192Z,289.40
2023-01-18T22:44:37.986Z,307.40
2023-01-18T22:46:50.078Z,309.70
2023-01-18T22:49:01.668Z,317.60
2023-01-18T22:51:16.718Z,288.00
2023-01-18T22:53:31.697Z,278.20
2023-01-18T22:55:43.384Z,275.30
2023-01-18T22:57:55.276Z,246.90
2023-01-18T23:00:07.990Z,253.50
2023-01-18T23:02:19.981Z,258.60
2023-01-18T23:04:34.133Z,266.00
2023-01-18T23:06:48.005Z,283.60
2023-01-18T23:09:00.368Z,288.10
2023-01-18T23:11:21.989Z,304.90
2023-01-18T23:13:33.780Z,330.10
2023-01-18T23:16:04.621Z,297.30
2023-01-18T23:18:16.711Z,263.80
2023-01-18T23:20:28.919Z,209.60
2023-01-18T23:22:41.316Z,220.00
2023-01-18T23:24:53.104Z,214.40
2023-01-18T23:27:07.150Z,213.50
2023-01-18T23:29:19.087Z,227.00
2023-01-18T23:31:30.875Z,209.00
2023-01-18T23:33:45.691Z,220.60
2023-01-18T23:35:57.792Z,222.30
2023-01-18T23:38:09.479Z,213.50
2023-01-18T23:40:40.010Z,212.10
2023-01-18T23:43:13.710Z,219.50
2023-01-18T23:45:44.550Z,219.70
2023-01-18T23:48:15.282Z,200.90
2023-01-18T23:50:46.033Z,247.40
2023-01-18T23:53:20.706Z,224.00
2023-01-18T23:55:32.744Z,219.60
2023-01-18T23:57:44.834Z,205.40
2023-01-18T23:59:58.945Z,192.80
